Time;durP1;ratioP1;P1;durP2;ratioP2;P2;SDS_P1;SDS_P2;PMS_P1;PMS_P2;Temp;Humidity;BMP_temperature;BMP_pressure;BME280_temperature;BME280_humidity;BME280_pressure;Samples;Min_cycle;Max_cycle;Signal;HPM_P1;HPM_P2
2022/06/13 00:04:05;;;;;;;4.43;4.03;;;22.50;99.90;;;;;;10325556;28;20209;-82
2022/06/13 00:09:07;;;;;;;3.95;3.65;;;22.50;99.90;;;;;;10328575;28;20613;-82
2022/06/13 00:14:10;;;;;;;6.07;3.92;;;22.50;99.90;;;;;;10308741;28;20283;-82
2022/06/13 00:19:12;;;;;;;4.00;3.70;;;22.50;99.90;;;;;;10320492;28;20286;-82
2022/06/13 00:24:15;;;;;;;3.95;3.67;;;22.50;99.90;;;;;;10313806;28;20244;-82
2022/06/13 00:29:17;;;;;;;3.78;3.55;;;22.50;99.90;;;;;;10336262;28;20232;-82
2022/06/13 00:34:20;;;;;;;3.92;3.63;;;22.40;99.90;;;;;;10297931;28;20327;-82
2022/06/13 00:39:23;;;;;;;4.38;4.05;;;22.40;99.90;;;;;;10296119;28;20201;-82
2022/06/13 00:44:32;;;;;;;4.45;3.58;;;22.40;99.90;;;;;;10296263;28;20280;-82
2022/06/13 00:49:44;;;;;;;4.53;3.72;;;22.40;99.90;;;;;;10295210;28;20645;-82
2022/06/13 00:54:50;;;;;;;3.97;3.67;;;22.40;99.90;;;;;;10294943;28;20253;-82
2022/06/13 00:59:59;;;;;;;4.13;3.83;;;22.40;99.90;;;;;;10292523;28;20201;-82
2022/06/13 01:05:02;;;;;;;4.70;4.07;;;22.40;99.90;;;;;;10306657;28;20228;-82
2022/06/13 01:15:53;;;;;;;4.28;3.97;;;22.30;99.90;;;;;;10332209;28;20755;-81
2022/06/13 01:21:16;;;;;;;4.28;3.90;;;22.30;99.90;;;;;;10281295;28;20667;-82
2022/06/13 01:26:36;;;;;;;3.92;3.63;;;22.30;99.90;;;;;;10308832;28;20216;-82
2022/06/13 01:32:03;;;;;;;3.70;3.40;;;22.30;99.90;;;;;;10332521;28;20698;-82
2022/06/13 01:37:28;;;;;;;3.38;3.08;;;22.30;99.90;;;;;;10331205;28;20228;-82
2022/06/13 01:43:05;;;;;;;3.17;2.97;;;22.30;99.90;;;;;;10277472;28;20781;-82
2022/06/13 01:48:58;;;;;;;3.28;3.08;;;22.20;99.90;;;;;;10273664;28;20253;-82
2022/06/13 01:54:32;;;;;;;3.53;3.22;;;22.20;99.90;;;;;;10150395;29;20314;-82
2022/06/13 01:59:40;;;;;;;3.97;3.58;;;22.20;99.90;;;;;;10168501;29;20243;-82
2022/06/13 02:05:05;;;;;;;3.35;3.15;;;22.20;99.90;;;;;;10168630;29;20246;-82
2022/06/13 02:10:19;;;;;;;3.72;3.42;;;22.20;99.90;;;;;;10133641;29;20243;-81
2022/06/13 02:15:32;;;;;;;3.40;3.10;;;22.20;99.90;;;;;;10151516;29;20768;-82
2022/06/13 02:20:38;;;;;;;4.03;2.88;;;22.20;99.90;;;;;;10167831;29;20263;-82
2022/06/13 02:25:53;;;;;;;3.78;3.50;;;22.20;99.90;;;;;;10264671;28;20652;-82
2022/06/13 02:31:01;;;;;;;3.42;3.13;;;22.10;99.90;;;;;;10273084;28;20308;-82
2022/06/13 02:36:53;;;;;;;3.10;2.90;;;22.10;99.90;;;;;;10252256;28;20201;-82
2022/06/13 02:42:10;;;;;;;4.65;3.40;;;22.10;99.90;;;;;;10271363;28;20280;-82
2022/06/13 02:47:27;;;;;;;3.47;3.17;;;22.10;99.90;;;;;;10302899;28;20231;-82
2022/06/13 02:52:38;;;;;;;4.00;3.40;;;22.10;99.90;;;;;;10301762;28;20308;-82
2022/06/13 02:57:43;;;;;;;4.28;3.10;;;22.10;99.90;;;;;;10266530;28;20745;-82
2022/06/13 03:03:11;;;;;;;3.28;3.08;;;22.10;99.90;;;;;;10297445;28;20630;-82
2022/06/13 03:08:16;;;;;;;3.33;3.13;;;22.20;99.90;;;;;;10330196;28;20270;-82
2022/06/13 03:13:30;;;;;;;4.22;3.42;;;22.20;99.90;;;;;;10328433;28;20256;-82
2022/06/13 03:18:43;;;;;;;3.55;3.25;;;22.10;99.90;;;;;;10287200;28;20218;-82
2022/06/13 03:23:53;;;;;;;2.72;2.53;;;22.20;99.90;;;;;;10289554;28;20229;-82
2022/06/13 03:29:34;;;;;;;2.83;2.63;;;22.10;99.90;;;;;;10289543;28;20287;-82
2022/06/13 03:34:47;;;;;;;2.63;2.42;;;22.10;99.90;;;;;;10270959;28;20257;-82
2022/06/13 03:40:01;;;;;;;7.05;3.15;;;22.10;99.90;;;;;;10289124;28;20276;-82
2022/06/13 03:45:06;;;;;;;3.70;3.40;;;22.10;99.90;;;;;;10288686;28;20280;-81
2022/06/13 03:50:18;;;;;;;3.15;2.88;;;22.10;99.90;;;;;;10304208;28;20265;-81
2022/06/13 03:55:30;;;;;;;2.83;2.63;;;22.10;99.90;;;;;;10311937;28;20252;-82
2022/06/13 04:00:39;;;;;;;2.88;2.67;;;22.10;99.90;;;;;;10286921;28;20241;-81
2022/06/13 04:05:59;;;;;;;3.15;2.92;;;22.10;99.90;;;;;;10321009;28;20257;-81
2022/06/13 04:11:19;;;;;;;3.00;2.78;;;22.10;99.90;;;;;;10327489;28;20208;-81
2022/06/13 04:16:24;;;;;;;2.88;2.67;;;22.20;99.90;;;;;;10309197;28;20260;-81
2022/06/13 04:22:00;;;;;;;3.22;3.03;;;22.10;99.90;;;;;;10300174;28;20237;-82
2022/06/13 04:27:17;;;;;;;3.45;3.25;;;22.20;99.90;;;;;;10286004;28;20233;-81
2022/06/13 04:32:25;;;;;;;2.88;2.67;;;22.20;99.90;;;;;;10300499;28;20245;-83
2022/06/13 04:37:28;;;;;;;3.70;3.42;;;22.20;99.90;;;;;;10286756;28;20229;-82
2022/06/13 04:42:35;;;;;;;3.75;3.45;;;22.20;99.90;;;;;;10268270;28;20262;-82
2022/06/13 04:47:38;;;;;;;6.22;3.08;;;22.00;99.90;;;;;;10269453;28;20214;-82
2022/06/13 04:52:44;;;;;;;3.50;3.20;;;22.20;99.90;;;;;;10300687;28;20299;-82
2022/06/13 04:57:47;;;;;;;7.25;6.20;;;22.20;99.90;;;;;;10292299;28;20654;-86
2022/06/13 05:02:53;;;;;;;13.90;12.40;;;21.40;99.90;;;;;;10309445;28;20251;-83
2022/06/13 05:07:55;;;;;;;13.90;12.35;;;21.50;99.90;;;;;;10313660;28;20640;-82
2022/06/13 05:12:58;;;;;;;12.43;10.60;;;21.30;99.90;;;;;;10275985;28;20250;-82
2022/06/13 05:18:16;;;;;;;10.18;8.35;;;21.50;99.90;;;;;;10292116;28;20260;-82
2022/06/13 05:23:36;;;;;;;10.90;8.25;;;21.70;99.90;;;;;;10276420;28;20233;-82
2022/06/13 05:28:38;;;;;;;8.80;7.20;;;21.90;99.90;;;;;;10292776;28;20233;-82
2022/06/13 05:33:42;;;;;;;16.00;12.35;;;22.10;99.90;;;;;;10284382;28;20947;-82
2022/06/13 05:38:52;;;;;;;7.80;6.85;;;21.90;99.90;;;;;;10292942;28;20277;-82
2022/06/13 05:43:54;;;;;;;8.70;7.18;;;21.90;99.90;;;;;;10292857;28;20619;-81
2022/06/13 05:48:58;;;;;;;9.50;8.48;;;22.20;99.90;;;;;;10291994;28;20241;-81
2022/06/13 05:54:01;;;;;;;7.25;6.55;;;22.20;99.90;;;;;;10292189;28;20311;-81
2022/06/13 05:59:04;;;;;;;7.07;6.38;;;21.90;99.90;;;;;;10292311;28;20221;-81
2022/06/13 06:04:06;;;;;;;7.82;7.03;;;22.30;99.90;;;;;;10316205;28;20295;-81
2022/06/13 06:09:12;;;;;;;8.30;7.47;;;22.30;99.90;;;;;;10312094;28;20232;-81
2022/06/13 06:14:15;;;;;;;7.53;6.43;;;22.00;99.90;;;;;;10332052;28;20341;-81
2022/06/13 06:19:17;;;;;;;6.70;6.05;;;22.30;99.90;;;;;;10281594;28;20630;-81
2022/06/13 06:24:20;;;;;;;7.18;6.57;;;22.40;99.90;;;;;;10283245;28;20240;-81
2022/06/13 06:29:23;;;;;;;6.78;5.97;;;22.40;99.90;;;;;;10289920;28;20689;-81
2022/06/13 06:34:25;;;;;;;9.20;7.32;;;22.50;99.90;;;;;;10290012;28;20280;-81
2022/06/13 06:39:27;;;;;;;8.32;7.43;;;22.10;99.90;;;;;;10289972;28;20284;-82
2022/06/13 06:44:30;;;;;;;10.48;9.55;;;22.10;99.90;;;;;;10317964;28;20240;-81
2022/06/13 06:49:38;;;;;;;15.30;11.57;;;22.00;99.90;;;;;;10294296;28;20311;-81
2022/06/13 07:00:05;;;;;;;7.55;6.95;;;21.10;99.90;;;;;;10284643;28;20238;-81
2022/06/13 07:05:10;;;;;;;9.70;8.90;;;21.30;99.90;;;;;;10283995;28;20237;-82
2022/06/13 07:10:13;;;;;;;8.77;7.60;;;21.60;99.90;;;;;;10264769;28;20735;-81
2022/06/13 07:15:15;;;;;;;8.10;7.30;;;22.40;99.90;;;;;;10280713;28;20681;-82
2022/06/13 07:20:18;;;;;;;7.82;7.18;;;22.60;99.90;;;;;;10268344;28;20698;-81
2022/06/13 07:25:23;;;;;;;15.48;10.35;;;22.20;99.90;;;;;;10283778;28;20245;-82
2022/06/13 07:30:28;;;;;;;9.30;8.45;;;21.60;99.90;;;;;;10284371;28;20315;-81
2022/06/13 07:35:32;;;;;;;10.60;8.13;;;21.50;99.90;;;;;;10283235;28;20268;-81
2022/06/13 07:40:36;;;;;;;14.65;10.27;;;21.10;99.90;;;;;;10284229;28;20230;-82
2022/06/13 07:45:39;;;;;;;7.63;6.57;;;21.30;99.90;;;;;;10266930;28;20760;-81
2022/06/13 07:50:55;;;;;;;26.75;14.90;;;21.40;99.90;;;;;;10279597;28;20284;-86
2022/06/13 07:56:03;;;;;;;17.63;13.43;;;21.00;99.90;;;;;;10285250;28;20742;-91
2022/06/13 08:01:06;;;;;;;18.45;12.02;;;20.80;99.90;;;;;;10268098;28;20237;-90
2022/06/13 08:06:10;;;;;;;20.85;14.23;;;21.20;99.90;;;;;;10288248;28;20263;-89
2022/06/13 08:11:20;;;;;;;17.33;13.38;;;21.40;99.90;;;;;;10282016;28;20272;-88
2022/06/13 08:16:23;;;;;;;22.85;12.93;;;21.40;99.90;;;;;;10290961;28;20778;-88
2022/06/13 08:21:25;;;;;;;15.85;13.13;;;21.50;99.90;;;;;;10294676;28;20248;-89
2022/06/13 08:26:28;;;;;;;16.55;12.40;;;21.70;99.90;;;;;;10274472;28;20233;-89
2022/06/13 08:31:31;;;;;;;19.13;12.38;;;22.20;99.90;;;;;;10282562;28;20713;-88
2022/06/13 08:36:34;;;;;;;16.63;13.48;;;22.00;99.90;;;;;;10245243;28;20323;-88
2022/06/13 08:41:50;;;;;;;16.13;12.70;;;21.90;99.90;;;;;;10269471;28;20238;-88
2022/06/13 08:47:12;;;;;;;19.02;12.63;;;22.10;99.90;;;;;;10273395;28;20264;-88
2022/06/13 08:52:20;;;;;;;20.45;15.02;;;22.30;99.90;;;;;;10294432;28;20241;-88
2022/06/13 08:57:26;;;;;;;17.15;10.77;;;22.60;99.90;;;;;;10277320;28;20265;-88
2022/06/13 09:02:36;;;;;;;11.43;10.23;;;22.70;99.90;;;;;;10293967;28;20268;-89
2022/06/13 09:07:51;;;;;;;13.30;9.93;;;23.30;99.90;;;;;;10293008;28;20284;-89
2022/06/13 09:13:19;;;;;;;12.82;9.75;;;23.50;99.90;;;;;;10308425;28;20315;-89
2022/06/13 09:18:42;;;;;;;11.25;9.38;;;23.80;99.90;;;;;;10314640;28;20789;-88
2022/06/13 09:24:14;;;;;;;10.35;9.20;;;23.30;99.90;;;;;;10246906;28;20700;-88
2022/06/13 09:29:31;;;;;;;14.48;9.50;;;23.70;99.90;;;;;;10254466;29;20229;-88
2022/06/13 09:34:46;;;;;;;10.05;9.05;;;23.60;99.90;;;;;;10306864;28;20322;-89
2022/06/13 09:39:48;;;;;;;10.15;9.15;;;23.80;99.90;;;;;;10305317;28;20588;-88
2022/06/13 09:45:17;;;;;;;9.52;7.50;;;23.80;99.90;;;;;;10315358;28;20237;-88
2022/06/13 09:50:29;;;;;;;8.80;7.95;;;23.50;99.90;;;;;;10282061;28;20240;-89
2022/06/13 09:55:35;;;;;;;8.38;7.53;;;23.80;99.90;;;;;;10288664;28;20284;-89
2022/06/13 10:01:07;;;;;;;8.60;5.90;;;24.00;99.90;;;;;;10273867;28;20205;-89
2022/06/13 10:06:15;;;;;;;9.77;8.77;;;23.70;99.90;;;;;;10307039;28;20641;-89
2022/06/13 10:12:03;;;;;;;5.75;4.90;;;24.10;99.90;;;;;;10332122;28;20340;-89
2022/06/13 10:17:11;;;;;;;8.20;7.25;;;22.90;99.90;;;;;;10121264;29;20344;-90
2022/06/13 10:22:34;;;;;;;6.57;6.03;;;23.20;99.90;;;;;;10135526;29;20243;-88
2022/06/13 10:27:59;;;;;;;7.43;4.65;;;23.00;99.90;;;;;;10128024;29;20655;-89
2022/06/13 10:33:46;;;;;;;3.83;3.30;;;22.90;99.90;;;;;;10128254;29;20296;-89
2022/06/13 10:38:52;;;;;;;4.38;3.90;;;22.70;99.90;;;;;;10110416;29;20287;-88
2022/06/13 10:43:56;;;;;;;4.70;4.28;;;23.00;99.90;;;;;;10126100;29;20256;-89
2022/06/13 10:49:11;;;;;;;3.05;2.28;;;22.70;99.90;;;;;;10135143;29;20270;-89
2022/06/13 10:54:24;;;;;;;6.97;2.35;;;22.40;99.90;;;;;;10295154;28;20296;-89
2022/06/13 10:59:33;;;;;;;5.50;3.13;;;22.80;99.90;;;;;;10289670;28;20233;-88
2022/06/13 11:04:37;;;;;;;9.10;2.33;;;22.50;99.90;;;;;;10289838;28;20240;-88
2022/06/13 11:09:58;;;;;;;4.75;4.35;;;22.70;99.90;;;;;;10310672;28;20229;-88
2022/06/13 11:31:34;;;;;;;3.05;2.65;;;22.80;99.90;;;;;;10327319;28;20684;-88
2022/06/13 11:36:36;;;;;;;7.65;3.20;;;22.70;99.90;;;;;;10298396;28;20257;-89
2022/06/13 11:41:45;;;;;;;6.32;3.25;;;22.60;99.20;;;;;;10301621;28;20640;-88
2022/06/13 11:46:57;;;;;;;4.20;2.78;;;22.20;99.90;;;;;;10305556;28;20248;-88
2022/06/13 11:52:11;;;;;;;3.95;2.83;;;22.30;99.90;;;;;;10322401;28;20228;-89
2022/06/13 11:57:14;;;;;;;4.60;2.83;;;22.30;99.90;;;;;;10287849;28;20253;-88
2022/06/13 12:02:20;;;;;;;9.50;3.03;;;22.50;99.90;;;;;;10287951;28;20300;-89
2022/06/13 12:07:27;;;;;;;5.50;4.15;;;22.50;99.90;;;;;;10306233;28;20322;-88
2022/06/13 12:12:44;;;;;;;6.97;3.00;;;22.60;99.90;;;;;;10292326;28;20261;-88
2022/06/13 12:17:55;;;;;;;4.57;2.90;;;22.40;99.90;;;;;;10289565;28;20266;-88
2022/06/13 12:23:05;;;;;;;5.72;3.28;;;22.20;99.90;;;;;;10289150;28;20225;-88
2022/06/13 12:28:12;;;;;;;6.20;3.25;;;22.20;99.90;;;;;;10288926;28;20190;-88
2022/06/13 12:33:21;;;;;;;2.95;2.60;;;22.20;99.90;;;;;;10270672;28;20230;-88
2022/06/13 12:38:26;;;;;;;6.18;4.13;;;21.80;99.90;;;;;;10273380;28;20237;-88
2022/06/13 12:43:53;;;;;;;4.40;3.50;;;21.60;99.90;;;;;;10279921;28;20229;-87
2022/06/13 12:49:24;;;;;;;4.72;4.32;;;21.80;99.90;;;;;;10265378;28;20233;-87
2022/06/13 12:54:44;;;;;;;3.35;2.47;;;21.90;99.90;;;;;;10270050;28;20667;-87
2022/06/13 13:00:14;;;;;;;4.50;3.28;;;21.60;99.90;;;;;;10268095;28;20206;-88
2022/06/13 13:05:22;;;;;;;5.97;2.22;;;22.10;99.90;;;;;;10289845;28;20245;-88
2022/06/13 13:11:05;;;;;;;6.28;2.97;;;21.80;99.80;;;;;;10258591;28;20245;-88
2022/06/13 13:16:43;;;;;;;4.35;2.25;;;22.20;99.40;;;;;;10270062;28;20265;-88
2022/06/13 13:22:12;;;;;;;6.53;2.50;;;21.90;96.90;;;;;;10109660;29;20296;-88
2022/06/13 13:27:17;;;;;;;3.30;2.92;;;22.10;99.90;;;;;;10093121;29;20229;-88
2022/06/13 13:32:22;;;;;;;4.80;2.90;;;22.00;98.50;;;;;;10098819;29;20249;-88
2022/06/13 13:37:41;;;;;;;4.05;3.60;;;21.80;99.90;;;;;;10105760;29;20369;-88
2022/06/13 13:43:08;;;;;;;3.33;2.55;;;21.90;99.90;;;;;;10115720;29;20252;-89
2022/06/13 13:48:44;;;;;;;4.47;3.03;;;21.90;99.90;;;;;;10110881;29;20241;-89
2022/06/13 13:54:12;;;;;;;4.93;3.60;;;22.10;98.50;;;;;;10099833;29;20330;-90
2022/06/13 13:59:21;;;;;;;3.28;2.45;;;22.10;99.90;;;;;;10276203;28;20233;-89
2022/06/13 14:04:38;;;;;;;3.00;1.88;;;;;;;;;;10294552;28;20238;-89
2022/06/13 14:09:40;;;;;;;3.58;2.80;;;21.50;99.90;;;;;;10274979;28;20257;-87
2022/06/13 14:14:49;;;;;;;3.47;3.17;;;21.40;99.90;;;;;;10284496;28;20234;-89
2022/06/13 14:20:05;;;;;;;3.72;1.85;;;21.80;99.90;;;;;;10276385;28;20206;-88
2022/06/13 14:25:14;;;;;;;6.25;2.28;;;21.80;97.00;;;;;;10293932;28;20205;-88
2022/06/13 14:35:56;;;;;;;5.28;1.65;;;21.10;94.30;;;;;;10260830;28;20724;-89
2022/06/13 14:41:04;;;;;;;5.35;1.90;;;21.90;99.60;;;;;;10298298;28;20257;-88
2022/06/13 14:46:28;;;;;;;4.47;2.03;;;21.90;98.20;;;;;;10288521;28;20260;-88
2022/06/13 14:52:07;;;;;;;5.97;1.88;;;22.20;87.30;;;;;;10286535;28;20291;-88
2022/06/13 14:57:43;;;;;;;9.15;2.28;;;22.40;99.90;;;;;;10266656;28;20741;-88
2022/06/13 15:02:55;;;;;;;5.95;2.03;;;22.20;99.90;;;;;;10309449;28;20694;-87
2022/06/13 15:08:08;;;;;;;6.15;1.88;;;22.40;99.90;;;;;;10312080;28;20291;-88
2022/06/13 15:13:14;;;;;;;5.05;1.40;;;22.10;99.90;;;;;;10273421;28;20241;-89
2022/06/13 15:18:23;;;;;;;8.95;2.20;;;21.60;90.40;;;;;;10315535;28;20343;-89
2022/06/13 15:23:41;;;;;;;6.60;1.40;;;22.00;99.90;;;;;;10306116;28;20718;-89
2022/06/13 15:29:03;;;;;;;3.75;1.60;;;21.40;99.90;;;;;;10284391;28;20622;-88
2022/06/13 15:34:08;;;;;;;5.57;1.60;;;22.00;99.90;;;;;;10289291;28;20729;-88
2022/06/13 15:39:14;;;;;;;5.05;2.00;;;21.80;90.90;;;;;;10288874;28;20283;-87
2022/06/13 15:44:21;;;;;;;7.60;1.38;;;22.00;99.90;;;;;;10289965;28;20677;-88
2022/06/13 15:49:37;;;;;;;5.60;1.52;;;22.60;99.90;;;;;;10277537;28;20272;-89
2022/06/13 15:54:50;;;;;;;6.88;1.63;;;22.70;99.90;;;;;;10281510;28;20651;-88
2022/06/13 16:00:01;;;;;;;6.63;2.15;;;22.60;99.80;;;;;;10295872;28;21008;-88
2022/06/13 16:05:30;;;;;;;3.80;2.30;;;22.00;99.90;;;;;;10302877;28;20685;-88
2022/06/13 16:10:42;;;;;;;3.35;1.92;;;21.80;99.90;;;;;;10311648;28;20669;-88
2022/06/13 16:15:45;;;;;;;2.78;1.80;;;22.60;99.90;;;;;;10286619;28;20785;-89
2022/06/13 16:20:51;;;;;;;5.10;1.65;;;22.00;99.90;;;;;;10249547;28;20702;-88
2022/06/13 16:25:55;;;;;;;2.70;1.15;;;21.60;95.40;;;;;;10310044;28;20244;-88
2022/06/13 16:30:59;;;;;;;5.38;1.55;;;22.00;85.80;;;;;;10275643;28;20638;-88
2022/06/13 16:36:36;;;;;;;3.92;1.00;;;22.00;94.30;;;;;;10320442;28;20276;-88
2022/06/13 16:41:43;;;;;;;6.70;1.45;;;21.90;99.90;;;;;;10327355;28;20300;-87
2022/06/13 16:46:52;;;;;;;5.22;1.17;;;19.30;81.90;;;;;;10291663;28;20685;-93
2022/06/13 16:52:00;;;;;;;2.83;1.02;;;20.00;95.90;;;;;;10276511;28;20567;-93
2022/06/13 16:57:38;;;;;;;5.63;1.27;;;20.30;90.30;;;;;;10309480;28;20283;-92
2022/06/13 17:03:00;;;;;;;2.92;1.30;;;21.10;84.80;;;;;;10278323;28;20245;-92
2022/06/13 17:08:18;;;;;;;2.55;0.90;;;21.20;79.00;;;;;;10273925;28;20776;-83
2022/06/13 17:15:15;;;;;;;3.10;1.20;;;20.50;80.50;;;;;;10599655;27;20914;-77
2022/06/13 17:20:27;;;;;;;3.38;0.88;;;19.20;77.00;;;;;;10528890;28;20258;-78
2022/06/13 17:32:06;;;;;;;3.27;0.90;;;18.50;81.80;;;;;;10551730;28;20250;-78
2022/06/13 17:36:14;;;;;;;2.97;1.17;;;18.30;85.20;;;;;;10518401;28;20230;-78
2022/06/13 17:41:17;;;;;;;3.00;1.17;;;17.90;86.00;;;;;;10535254;28;20299;-78
2022/06/13 17:46:20;;;;;;;2.50;1.57;;;17.60;84.80;;;;;;10525963;28;20282;-78
2022/06/13 17:51:23;;;;;;;2.40;1.17;;;17.60;87.50;;;;;;10533253;28;20242;-79
2022/06/13 17:56:26;;;;;;;5.00;1.10;;;17.50;87.40;;;;;;10535968;27;20286;-79
2022/06/13 18:01:30;;;;;;;4.90;1.07;;;17.40;87.40;;;;;;10515170;28;20232;-78
2022/06/13 18:06:33;;;;;;;3.57;1.00;;;17.70;90.20;;;;;;10515327;28;20237;-79
2022/06/13 18:11:36;;;;;;;1.67;1.00;;;18.20;88.20;;;;;;10516403;28;20339;-79
2022/06/13 18:16:39;;;;;;;3.57;0.87;;;18.20;90.70;;;;;;10520044;28;20566;-80
2022/06/13 18:21:42;;;;;;;4.13;1.20;;;18.10;90.00;;;;;;10563125;28;20232;-80
2022/06/13 18:26:45;;;;;;;4.13;1.20;;;17.50;91.20;;;;;;10531230;28;20776;-81
2022/06/13 18:31:48;;;;;;;8.40;2.07;;;16.80;93.10;;;;;;10465694;28;20254;-80
2022/06/13 18:36:51;;;;;;;5.80;1.30;;;16.80;94.60;;;;;;10496811;28;20233;-81
2022/06/13 18:41:54;;;;;;;5.13;1.30;;;16.50;95.40;;;;;;10507701;28;20698;-81
2022/06/13 18:46:56;;;;;;;2.70;0.90;;;16.40;99.30;;;;;;10511509;28;20695;-80
2022/06/13 18:51:59;;;;;;;5.33;1.33;;;16.30;97.30;;;;;;10537787;28;20294;-80
2022/06/13 18:57:02;;;;;;;1.83;1.13;;;16.30;99.90;;;;;;10533744;28;20228;-81
2022/06/13 19:02:07;;;;;;;3.13;1.10;;;15.80;99.90;;;;;;10508911;28;20225;-81
2022/06/13 19:07:11;;;;;;;2.30;1.57;;;16.20;99.90;;;;;;10139898;28;9999920;-80
2022/06/13 19:12:16;;;;;;;3.13;1.30;;;16.00;99.80;;;;;;10517417;28;20261;-80
2022/06/13 19:17:19;;;;;;;3.87;2.13;;;15.40;99.90;;;;;;10488269;28;20288;-80
2022/06/13 19:22:22;;;;;;;2.30;1.27;;;15.00;99.90;;;;;;10497834;28;20234;-81
2022/06/13 19:27:28;;;;;;;2.67;1.27;;;15.50;99.90;;;;;;10512115;28;20258;-81
2022/06/13 19:32:40;;;;;;;3.03;1.30;;;15.10;99.90;;;;;;10478312;28;20309;-81
2022/06/13 19:37:44;;;;;;;2.50;1.20;;;15.20;99.90;;;;;;10556237;27;20297;-80
2022/06/13 19:42:48;;;;;;;4.40;1.27;;;15.00;99.90;;;;;;10527028;28;20233;-79
2022/06/13 19:47:50;;;;;;;4.70;1.47;;;15.20;99.90;;;;;;10466876;28;20330;-79
2022/06/13 19:53:10;;;;;;;3.50;1.43;;;;;;;;;;10492141;28;20245;-79
2022/06/13 19:58:22;;;;;;;3.40;1.53;;;14.90;99.90;;;;;;10484764;28;20275;-80
2022/06/13 20:03:33;;;;;;;8.60;1.20;;;14.50;99.90;;;;;;10490285;28;20230;-80
2022/06/13 20:08:39;;;;;;;3.27;1.90;;;14.50;99.90;;;;;;10490650;28;20229;-80
2022/06/13 20:13:48;;;;;;;3.33;1.30;;;14.60;99.90;;;;;;10520934;27;20289;-80
2022/06/13 20:18:59;;;;;;;3.97;1.27;;;14.60;99.90;;;;;;10490459;28;20230;-82
2022/06/13 20:24:02;;;;;;;2.43;1.33;;;;;;;;;;10490246;28;20233;-82
2022/06/13 20:29:05;;;;;;;3.10;1.57;;;14.30;99.90;;;;;;10486269;28;20234;-82
2022/06/13 20:34:13;;;;;;;4.07;1.30;;;14.60;99.90;;;;;;10500847;28;20246;-81
2022/06/13 20:39:32;;;;;;;1.40;1.10;;;15.20;99.90;;;;;;10483444;28;20261;-79
2022/06/13 20:44:39;;;;;;;2.73;1.47;;;15.80;99.90;;;;;;10500908;28;20229;-80
2022/06/13 20:49:46;;;;;;;2.28;1.10;;;16.60;99.90;;;;;;10522557;27;20237;-82
2022/06/13 20:54:49;;;;;;;1.60;0.95;;;17.90;99.90;;;;;;10490988;28;20257;-80
2022/06/13 20:59:52;;;;;;;1.08;0.90;;;;;;;;;;10508993;28;20280;-80
2022/06/13 21:04:54;;;;;;;2.70;1.20;;;20.30;99.90;;;;;;10486130;28;20264;-80
2022/06/13 21:10:07;;;;;;;2.53;1.45;;;21.10;99.90;;;;;;10521208;28;20244;-81
2022/06/13 21:15:15;;;;;;;1.30;1.05;;;21.50;99.90;;;;;;10496158;28;20249;-81
2022/06/13 21:20:20;;;;;;;4.03;1.83;;;21.80;99.90;;;;;;10489825;28;20626;-81
2022/06/13 21:25:27;;;;;;;2.15;1.40;;;22.00;99.90;;;;;;10490036;28;20233;-81
2022/06/13 21:30:30;;;;;;;1.40;1.30;;;22.10;99.90;;;;;;10497524;28;20233;-78
2022/06/13 21:35:33;;;;;;;1.63;1.17;;;22.20;99.90;;;;;;10448920;28;20258;-78
2022/06/13 21:40:39;;;;;;;4.22;1.70;;;22.20;99.90;;;;;;10487226;28;20220;-78
2022/06/13 21:45:43;;;;;;;2.80;1.42;;;22.30;99.90;;;;;;10530341;28;20274;-78
2022/06/13 21:50:49;;;;;;;3.85;1.20;;;22.40;99.90;;;;;;10528018;28;20641;-78
2022/06/13 21:55:52;;;;;;;2.95;2.28;;;22.40;99.90;;;;;;10556401;28;20326;-78
2022/06/13 22:00:55;;;;;;;1.80;1.10;;;22.30;99.90;;;;;;10536849;28;20260;-78
2022/06/13 22:05:58;;;;;;;2.38;1.15;;;22.30;99.90;;;;;;10537446;28;20613;-78
2022/06/13 22:11:00;;;;;;;1.42;0.98;;;22.30;99.90;;;;;;10538318;28;20778;-78
2022/06/13 22:16:03;;;;;;;1.42;1.10;;;22.30;99.90;;;;;;10535059;28;20283;-78
2022/06/13 22:21:05;;;;;;;1.17;0.80;;;22.30;99.90;;;;;;10516157;28;20596;-78
2022/06/13 22:26:08;;;;;;;2.10;1.25;;;22.30;99.90;;;;;;10515057;28;20225;-78
2022/06/13 22:31:11;;;;;;;1.10;0.80;;;22.30;99.90;;;;;;10513903;28;20242;-78
2022/06/13 22:36:13;;;;;;;2.30;1.00;;;22.30;99.90;;;;;;10518571;28;20256;-78
2022/06/13 22:41:16;;;;;;;2.08;1.35;;;22.30;99.90;;;;;;10536576;28;20229;-78
2022/06/13 22:49:45;;;;;;;1.05;0.93;;;22.20;99.90;;;;;;10536795;28;20251;-78
2022/06/13 22:51:41;;;;;;;1.48;1.00;;;22.10;99.90;;;;;;10533381;28;20767;-78
2022/06/13 22:56:44;;;;;;;2.15;1.20;;;22.10;99.90;;;;;;10535149;28;20668;-78
2022/06/13 23:01:46;;;;;;;2.05;1.17;;;22.10;99.90;;;;;;10520997;28;20644;-79
2022/06/13 23:06:49;;;;;;;1.20;1.00;;;22.20;99.90;;;;;;10535763;28;20241;-78
2022/06/13 23:11:51;;;;;;;1.42;1.05;;;22.20;99.90;;;;;;10535731;28;20338;-78
2022/06/13 23:16:55;;;;;;;2.47;1.33;;;22.20;99.90;;;;;;10534612;28;20659;-78
2022/06/13 23:21:58;;;;;;;1.40;1.23;;;22.20;99.90;;;;;;10535489;28;20206;-78
2022/06/13 23:27:00;;;;;;;1.27;1.08;;;22.20;99.90;;;;;;10536726;28;20654;-78
2022/06/13 23:32:04;;;;;;;1.60;1.02;;;22.10;99.90;;;;;;10501245;28;20253;-80
2022/06/13 23:37:07;;;;;;;2.72;1.48;;;22.10;99.90;;;;;;10513064;28;20642;-78
2022/06/13 23:42:10;;;;;;;1.35;1.15;;;22.10;99.90;;;;;;10534770;28;20233;-78
2022/06/13 23:47:12;;;;;;;2.03;1.10;;;22.10;99.90;;;;;;10532234;28;20229;-78
2022/06/13 23:52:15;;;;;;;2.35;1.00;;;22.10;99.90;;;;;;10516051;28;20257;-78
2022/06/13 23:57:18;;;;;;;1.33;1.05;;;22.00;99.90;;;;;;10534220;28;20205;-78
